TNCE/EUX METAR and TAF weather

Enter ICAO airport designator
Station Type Date Time Source
TNCE METAR 2024/04/18 07:55 UTC NOAA

TNCE 180755Z AUTO VRB01KT //// // ///////// 24/23 Q1011 RE//


Station Type Date Time Source
TNCE Decoded METAR 2024/04/18 07:55 UTC NOAA

Roosevelt Airport Saint Eustatius, Netherlands Antilles (TNCE) 17-29N 062-59W 39M
Apr 18, 2024 - 03:55 AM EDT / 2024.04.18 0755 UTC
Wind: Variable at 1 MPH (1 KT):0
Temperature: 75 F (24 C)
Dew Point: 73 F (23 C)
Relative Humidity: 94%
Pressure (altimeter): 29.85 in. Hg (1011 hPa)
ob: TNCE 180755Z AUTO VRB01KT //// // ///////// 24/23 Q1011 RE//
cycle: 8

Station Type Date Time Source
TNCE TAF UTC NOAA

Error!

Example: see airport list